sensor_id;sensor_type;location;lat;lon;timestamp;P1;durP1;ratioP1;P2;durP2;ratioP2
26742;SDS011;14341;51.256;22.478;2022-12-18T00:01:04;194.32;;;63.17;;
26742;SDS011;14341;51.256;22.478;2022-12-18T00:04:18;183.75;;;60.80;;
26742;SDS011;14341;51.256;22.478;2022-12-18T00:07:26;164.80;;;54.78;;
26742;SDS011;14341;51.256;22.478;2022-12-18T00:10:29;196.77;;;65.03;;
26742;SDS011;14341;51.256;22.478;2022-12-18T00:13:33;196.85;;;63.00;;
26742;SDS011;14341;51.256;22.478;2022-12-18T00:16:38;180.93;;;60.78;;
26742;SDS011;14341;51.256;22.478;2022-12-18T00:19:42;181.68;;;61.58;;
26742;SDS011;14341;51.256;22.478;2022-12-18T00:22:47;174.10;;;59.80;;
26742;SDS011;14341;51.256;22.478;2022-12-18T00:25:51;170.75;;;59.13;;
26742;SDS011;14341;51.256;22.478;2022-12-18T00:28:57;157.82;;;56.03;;
26742;SDS011;14341;51.256;22.478;2022-12-18T00:32:04;124.03;;;43.07;;
26742;SDS011;14341;51.256;22.478;2022-12-18T00:35:07;168.38;;;56.53;;
26742;SDS011;14341;51.256;22.478;2022-12-18T00:38:12;162.98;;;54.67;;
26742;SDS011;14341;51.256;22.478;2022-12-18T00:41:18;164.35;;;56.33;;
26742;SDS011;14341;51.256;22.478;2022-12-18T00:44:35;166.68;;;55.88;;
26742;SDS011;14341;51.256;22.478;2022-12-18T00:47:39;125.65;;;47.30;;
26742;SDS011;14341;51.256;22.478;2022-12-18T00:50:43;154.43;;;54.10;;
26742;SDS011;14341;51.256;22.478;2022-12-18T00:53:48;140.60;;;52.28;;
26742;SDS011;14341;51.256;22.478;2022-12-18T00:56:51;152.60;;;54.38;;
26742;SDS011;14341;51.256;22.478;2022-12-18T00:59:56;146.48;;;52.45;;
26742;SDS011;14341;51.256;22.478;2022-12-18T01:02:59;146.07;;;50.58;;
26742;SDS011;14341;51.256;22.478;2022-12-18T01:06:05;139.45;;;50.42;;
26742;SDS011;14341;51.256;22.478;2022-12-18T01:09:11;148.55;;;51.35;;
26742;SDS011;14341;51.256;22.478;2022-12-18T01:12:14;144.77;;;51.35;;
26742;SDS011;14341;51.256;22.478;2022-12-18T01:15:17;139.63;;;49.85;;
26742;SDS011;14341;51.256;22.478;2022-12-18T01:18:21;112.03;;;40.35;;
26742;SDS011;14341;51.256;22.478;2022-12-18T01:21:25;139.30;;;51.03;;
26742;SDS011;14341;51.256;22.478;2022-12-18T01:24:29;127.13;;;45.08;;
26742;SDS011;14341;51.256;22.478;2022-12-18T01:27:33;113.05;;;38.30;;
26742;SDS011;14341;51.256;22.478;2022-12-18T01:30:37;127.85;;;47.10;;
26742;SDS011;14341;51.256;22.478;2022-12-18T01:33:41;124.30;;;45.45;;
26742;SDS011;14341;51.256;22.478;2022-12-18T01:36:44;128.60;;;47.72;;
26742;SDS011;14341;51.256;22.478;2022-12-18T01:39:49;126.30;;;44.25;;
26742;SDS011;14341;51.256;22.478;2022-12-18T01:42:54;132.77;;;43.97;;
26742;SDS011;14341;51.256;22.478;2022-12-18T01:45:58;157.38;;;48.83;;
26742;SDS011;14341;51.256;22.478;2022-12-18T01:49:02;181.07;;;48.63;;
26742;SDS011;14341;51.256;22.478;2022-12-18T01:52:05;155.35;;;50.20;;
26742;SDS011;14341;51.256;22.478;2022-12-18T01:55:10;155.25;;;52.10;;
26742;SDS011;14341;51.256;22.478;2022-12-18T01:58:15;148.70;;;49.83;;
26742;SDS011;14341;51.256;22.478;2022-12-18T02:01:20;118.72;;;44.20;;
26742;SDS011;14341;51.256;22.478;2022-12-18T02:04:26;116.95;;;43.97;;
26742;SDS011;14341;51.256;22.478;2022-12-18T02:07:32;120.45;;;42.50;;
26742;SDS011;14341;51.256;22.478;2022-12-18T02:10:48;117.15;;;40.05;;
26742;SDS011;14341;51.256;22.478;2022-12-18T02:14:07;122.13;;;42.90;;
26742;SDS011;14341;51.256;22.478;2022-12-18T02:17:22;115.53;;;43.45;;
26742;SDS011;14341;51.256;22.478;2022-12-18T02:20:31;131.40;;;42.38;;
26742;SDS011;14341;51.256;22.478;2022-12-18T02:23:45;122.05;;;46.47;;
26742;SDS011;14341;51.256;22.478;2022-12-18T02:26:57;113.88;;;42.75;;
26742;SDS011;14341;51.256;22.478;2022-12-18T02:30:05;111.53;;;41.50;;
26742;SDS011;14341;51.256;22.478;2022-12-18T02:33:11;125.90;;;41.50;;
26742;SDS011;14341;51.256;22.478;2022-12-18T02:36:17;117.43;;;41.25;;
26742;SDS011;14341;51.256;22.478;2022-12-18T02:39:25;120.95;;;41.88;;
26742;SDS011;14341;51.256;22.478;2022-12-18T02:42:37;131.85;;;42.65;;
26742;SDS011;14341;51.256;22.478;2022-12-18T02:45:46;146.82;;;50.03;;
26742;SDS011;14341;51.256;22.478;2022-12-18T02:48:51;113.03;;;40.95;;
26742;SDS011;14341;51.256;22.478;2022-12-18T02:52:01;151.50;;;48.28;;
26742;SDS011;14341;51.256;22.478;2022-12-18T02:55:13;202.80;;;65.78;;
26742;SDS011;14341;51.256;22.478;2022-12-18T02:58:33;230.35;;;82.47;;
26742;SDS011;14341;51.256;22.478;2022-12-18T03:01:51;138.48;;;48.83;;
26742;SDS011;14341;51.256;22.478;2022-12-18T03:05:01;126.50;;;47.35;;
26742;SDS011;14341;51.256;22.478;2022-12-18T03:08:13;141.35;;;47.58;;
26742;SDS011;14341;51.256;22.478;2022-12-18T03:11:25;138.80;;;48.55;;
26742;SDS011;14341;51.256;22.478;2022-12-18T03:14:50;147.70;;;50.22;;
26742;SDS011;14341;51.256;22.478;2022-12-18T03:18:02;112.20;;;43.00;;
26742;SDS011;14341;51.256;22.478;2022-12-18T03:21:09;141.63;;;49.72;;
26742;SDS011;14341;51.256;22.478;2022-12-18T03:24:15;130.45;;;46.25;;
26742;SDS011;14341;51.256;22.478;2022-12-18T03:27:21;113.30;;;40.63;;
26742;SDS011;14341;51.256;22.478;2022-12-18T03:30:31;107.28;;;43.15;;
26742;SDS011;14341;51.256;22.478;2022-12-18T03:33:38;105.78;;;42.33;;
26742;SDS011;14341;51.256;22.478;2022-12-18T03:36:47;94.38;;;39.63;;
26742;SDS011;14341;51.256;22.478;2022-12-18T03:39:52;90.43;;;36.35;;
26742;SDS011;14341;51.256;22.478;2022-12-18T03:42:57;92.25;;;38.92;;
26742;SDS011;14341;51.256;22.478;2022-12-18T03:46:09;96.90;;;42.97;;
26742;SDS011;14341;51.256;22.478;2022-12-18T03:49:21;91.57;;;39.95;;
26742;SDS011;14341;51.256;22.478;2022-12-18T03:52:31;106.15;;;45.45;;
26742;SDS011;14341;51.256;22.478;2022-12-18T03:55:42;117.18;;;47.13;;
26742;SDS011;14341;51.256;22.478;2022-12-18T03:58:47;101.82;;;43.28;;
26742;SDS011;14341;51.256;22.478;2022-12-18T04:01:58;140.85;;;59.20;;
26742;SDS011;14341;51.256;22.478;2022-12-18T04:05:04;156.52;;;68.95;;
26742;SDS011;14341;51.256;22.478;2022-12-18T04:08:13;157.95;;;72.10;;
26742;SDS011;14341;51.256;22.478;2022-12-18T04:11:24;140.25;;;57.97;;
26742;SDS011;14341;51.256;22.478;2022-12-18T04:14:28;143.93;;;62.40;;
26742;SDS011;14341;51.256;22.478;2022-12-18T04:17:41;137.57;;;60.03;;
26742;SDS011;14341;51.256;22.478;2022-12-18T04:20:52;128.73;;;59.72;;
26742;SDS011;14341;51.256;22.478;2022-12-18T04:23:59;128.45;;;58.45;;
26742;SDS011;14341;51.256;22.478;2022-12-18T04:27:03;111.32;;;53.08;;
26742;SDS011;14341;51.256;22.478;2022-12-18T04:30:13;113.80;;;50.13;;
26742;SDS011;14341;51.256;22.478;2022-12-18T04:33:18;118.47;;;51.55;;
26742;SDS011;14341;51.256;22.478;2022-12-18T04:36:22;111.47;;;47.72;;
26742;SDS011;14341;51.256;22.478;2022-12-18T04:39:29;104.68;;;47.00;;
26742;SDS011;14341;51.256;22.478;2022-12-18T04:42:38;103.53;;;45.25;;
26742;SDS011;14341;51.256;22.478;2022-12-18T04:45:42;94.45;;;45.22;;
26742;SDS011;14341;51.256;22.478;2022-12-18T04:48:47;98.10;;;44.13;;
26742;SDS011;14341;51.256;22.478;2022-12-18T04:51:50;97.43;;;43.05;;
26742;SDS011;14341;51.256;22.478;2022-12-18T04:54:54;95.70;;;44.67;;
26742;SDS011;14341;51.256;22.478;2022-12-18T04:57:57;95.20;;;38.88;;
26742;SDS011;14341;51.256;22.478;2022-12-18T05:01:00;86.65;;;40.33;;
26742;SDS011;14341;51.256;22.478;2022-12-18T05:04:05;89.03;;;40.78;;
26742;SDS011;14341;51.256;22.478;2022-12-18T05:07:09;89.90;;;39.20;;
26742;SDS011;14341;51.256;22.478;2022-12-18T05:10:13;94.97;;;43.35;;
26742;SDS011;14341;51.256;22.478;2022-12-18T05:13:16;100.90;;;41.65;;
26742;SDS011;14341;51.256;22.478;2022-12-18T05:16:20;92.35;;;41.08;;
26742;SDS011;14341;51.256;22.478;2022-12-18T05:19:24;83.20;;;38.47;;
26742;SDS011;14341;51.256;22.478;2022-12-18T05:22:27;84.90;;;36.78;;
26742;SDS011;14341;51.256;22.478;2022-12-18T05:25:31;84.18;;;37.40;;
26742;SDS011;14341;51.256;22.478;2022-12-18T05:28:35;84.95;;;38.80;;
26742;SDS011;14341;51.256;22.478;2022-12-18T05:31:38;82.60;;;38.75;;
26742;SDS011;14341;51.256;22.478;2022-12-18T05:34:45;86.82;;;39.05;;
26742;SDS011;14341;51.256;22.478;2022-12-18T05:37:48;78.75;;;35.13;;
26742;SDS011;14341;51.256;22.478;2022-12-18T05:40:51;80.43;;;38.53;;
26742;SDS011;14341;51.256;22.478;2022-12-18T05:43:55;79.75;;;37.40;;
26742;SDS011;14341;51.256;22.478;2022-12-18T05:46:58;83.38;;;38.35;;
26742;SDS011;14341;51.256;22.478;2022-12-18T05:50:03;76.45;;;35.75;;
26742;SDS011;14341;51.256;22.478;2022-12-18T05:53:08;71.60;;;34.17;;
26742;SDS011;14341;51.256;22.478;2022-12-18T05:56:12;72.13;;;35.90;;
26742;SDS011;14341;51.256;22.478;2022-12-18T05:59:17;72.95;;;33.90;;
26742;SDS011;14341;51.256;22.478;2022-12-18T06:02:20;69.13;;;33.53;;
26742;SDS011;14341;51.256;22.478;2022-12-18T06:05:25;72.53;;;34.88;;
26742;SDS011;14341;51.256;22.478;2022-12-18T06:08:28;72.85;;;33.83;;
26742;SDS011;14341;51.256;22.478;2022-12-18T06:11:31;69.18;;;33.30;;
26742;SDS011;14341;51.256;22.478;2022-12-18T06:14:34;69.28;;;33.97;;
26742;SDS011;14341;51.256;22.478;2022-12-18T06:17:38;76.80;;;35.65;;
26742;SDS011;14341;51.256;22.478;2022-12-18T06:20:42;79.95;;;37.65;;
26742;SDS011;14341;51.256;22.478;2022-12-18T06:23:46;77.10;;;36.45;;
26742;SDS011;14341;51.256;22.478;2022-12-18T06:26:49;84.72;;;37.50;;
26742;SDS011;14341;51.256;22.478;2022-12-18T06:29:53;75.55;;;37.70;;
26742;SDS011;14341;51.256;22.478;2022-12-18T06:32:56;77.35;;;37.63;;
26742;SDS011;14341;51.256;22.478;2022-12-18T06:36:01;86.18;;;41.53;;
26742;SDS011;14341;51.256;22.478;2022-12-18T06:39:06;85.57;;;40.15;;
26742;SDS011;14341;51.256;22.478;2022-12-18T06:42:09;78.28;;;37.05;;
26742;SDS011;14341;51.256;22.478;2022-12-18T06:45:15;80.53;;;37.88;;
26742;SDS011;14341;51.256;22.478;2022-12-18T06:48:19;78.65;;;36.78;;
26742;SDS011;14341;51.256;22.478;2022-12-18T06:51:23;80.03;;;38.30;;
26742;SDS011;14341;51.256;22.478;2022-12-18T06:54:27;77.93;;;38.60;;
26742;SDS011;14341;51.256;22.478;2022-12-18T06:57:31;82.35;;;38.80;;
26742;SDS011;14341;51.256;22.478;2022-12-18T07:00:35;95.30;;;43.75;;
26742;SDS011;14341;51.256;22.478;2022-12-18T07:03:38;144.55;;;62.53;;
26742;SDS011;14341;51.256;22.478;2022-12-18T07:06:44;106.80;;;47.13;;
26742;SDS011;14341;51.256;22.478;2022-12-18T07:09:48;155.75;;;60.30;;
26742;SDS011;14341;51.256;22.478;2022-12-18T07:12:52;162.35;;;61.13;;
26742;SDS011;14341;51.256;22.478;2022-12-18T07:15:55;148.02;;;54.50;;
26742;SDS011;14341;51.256;22.478;2022-12-18T07:19:13;137.38;;;51.28;;
26742;SDS011;14341;51.256;22.478;2022-12-18T07:22:18;101.15;;;41.85;;
26742;SDS011;14341;51.256;22.478;2022-12-18T07:25:21;109.18;;;42.63;;
26742;SDS011;14341;51.256;22.478;2022-12-18T07:28:24;88.95;;;40.05;;
26742;SDS011;14341;51.256;22.478;2022-12-18T07:31:28;107.80;;;43.47;;
26742;SDS011;14341;51.256;22.478;2022-12-18T07:34:31;106.38;;;43.97;;
26742;SDS011;14341;51.256;22.478;2022-12-18T07:37:37;167.32;;;68.50;;
26742;SDS011;14341;51.256;22.478;2022-12-18T07:40:45;121.85;;;56.42;;
26742;SDS011;14341;51.256;22.478;2022-12-18T07:43:52;112.50;;;45.53;;
26742;SDS011;14341;51.256;22.478;2022-12-18T07:46:57;118.68;;;45.53;;
26742;SDS011;14341;51.256;22.478;2022-12-18T07:50:00;118.38;;;46.28;;
26742;SDS011;14341;51.256;22.478;2022-12-18T07:53:05;108.78;;;45.05;;
26742;SDS011;14341;51.256;22.478;2022-12-18T07:56:10;101.95;;;43.70;;
26742;SDS011;14341;51.256;22.478;2022-12-18T07:59:31;96.55;;;42.08;;
26742;SDS011;14341;51.256;22.478;2022-12-18T08:02:35;96.82;;;43.85;;
26742;SDS011;14341;51.256;22.478;2022-12-18T08:05:38;99.90;;;44.15;;
26742;SDS011;14341;51.256;22.478;2022-12-18T08:08:43;94.72;;;43.05;;
26742;SDS011;14341;51.256;22.478;2022-12-18T08:11:47;86.97;;;40.03;;
26742;SDS011;14341;51.256;22.478;2022-12-18T08:14:50;85.90;;;40.45;;
26742;SDS011;14341;51.256;22.478;2022-12-18T08:17:55;87.97;;;39.28;;
26742;SDS011;14341;51.256;22.478;2022-12-18T08:21:06;80.07;;;37.50;;
26742;SDS011;14341;51.256;22.478;2022-12-18T08:24:13;76.63;;;35.97;;
26742;SDS011;14341;51.256;22.478;2022-12-18T08:27:16;92.15;;;42.65;;
26742;SDS011;14341;51.256;22.478;2022-12-18T08:30:35;78.83;;;32.53;;
26742;SDS011;14341;51.256;22.478;2022-12-18T08:33:39;82.00;;;39.10;;
26742;SDS011;14341;51.256;22.478;2022-12-18T08:36:44;84.28;;;38.67;;
26742;SDS011;14341;51.256;22.478;2022-12-18T08:39:49;79.57;;;36.85;;
26742;SDS011;14341;51.256;22.478;2022-12-18T08:42:52;79.75;;;35.85;;
26742;SDS011;14341;51.256;22.478;2022-12-18T08:46:16;79.07;;;37.72;;
26742;SDS011;14341;51.256;22.478;2022-12-18T08:49:19;82.07;;;38.15;;
26742;SDS011;14341;51.256;22.478;2022-12-18T08:52:23;73.60;;;35.25;;
26742;SDS011;14341;51.256;22.478;2022-12-18T08:55:27;72.10;;;35.75;;
26742;SDS011;14341;51.256;22.478;2022-12-18T08:58:30;78.72;;;34.65;;
26742;SDS011;14341;51.256;22.478;2022-12-18T09:01:34;72.55;;;35.22;;
26742;SDS011;14341;51.256;22.478;2022-12-18T09:04:37;75.47;;;36.38;;
26742;SDS011;14341;51.256;22.478;2022-12-18T09:07:41;71.20;;;33.92;;
26742;SDS011;14341;51.256;22.478;2022-12-18T09:10:47;78.65;;;35.38;;
26742;SDS011;14341;51.256;22.478;2022-12-18T09:13:52;68.60;;;34.55;;
26742;SDS011;14341;51.256;22.478;2022-12-18T09:16:56;65.82;;;29.73;;
26742;SDS011;14341;51.256;22.478;2022-12-18T09:19:59;70.50;;;33.72;;
26742;SDS011;14341;51.256;22.478;2022-12-18T09:23:02;78.53;;;38.13;;
26742;SDS011;14341;51.256;22.478;2022-12-18T09:26:08;81.97;;;38.08;;
26742;SDS011;14341;51.256;22.478;2022-12-18T09:29:11;88.38;;;43.08;;
26742;SDS011;14341;51.256;22.478;2022-12-18T09:32:15;88.32;;;40.20;;
26742;SDS011;14341;51.256;22.478;2022-12-18T09:35:23;91.13;;;39.05;;
26742;SDS011;14341;51.256;22.478;2022-12-18T09:38:26;103.00;;;44.95;;
26742;SDS011;14341;51.256;22.478;2022-12-18T09:41:36;89.88;;;42.30;;
26742;SDS011;14341;51.256;22.478;2022-12-18T09:44:45;82.85;;;39.47;;
26742;SDS011;14341;51.256;22.478;2022-12-18T09:47:52;91.07;;;39.22;;
26742;SDS011;14341;51.256;22.478;2022-12-18T09:50:58;94.28;;;41.03;;
26742;SDS011;14341;51.256;22.478;2022-12-18T09:54:05;93.60;;;43.72;;
26742;SDS011;14341;51.256;22.478;2022-12-18T09:57:19;85.40;;;38.05;;
26742;SDS011;14341;51.256;22.478;2022-12-18T10:00:26;91.80;;;42.25;;
26742;SDS011;14341;51.256;22.478;2022-12-18T10:03:30;70.38;;;34.28;;
26742;SDS011;14341;51.256;22.478;2022-12-18T10:06:35;84.53;;;38.83;;
26742;SDS011;14341;51.256;22.478;2022-12-18T10:09:46;78.95;;;38.67;;
26742;SDS011;14341;51.256;22.478;2022-12-18T10:13:00;78.90;;;37.80;;
26742;SDS011;14341;51.256;22.478;2022-12-18T10:16:09;83.65;;;37.90;;
26742;SDS011;14341;51.256;22.478;2022-12-18T10:19:20;83.03;;;39.65;;
26742;SDS011;14341;51.256;22.478;2022-12-18T10:22:40;69.50;;;34.33;;
26742;SDS011;14341;51.256;22.478;2022-12-18T10:25:53;84.10;;;39.35;;
26742;SDS011;14341;51.256;22.478;2022-12-18T10:29:06;89.72;;;40.63;;
26742;SDS011;14341;51.256;22.478;2022-12-18T10:32:14;72.47;;;33.85;;
26742;SDS011;14341;51.256;22.478;2022-12-18T10:35:21;83.55;;;37.65;;
26742;SDS011;14341;51.256;22.478;2022-12-18T10:38:26;68.25;;;32.47;;
26742;SDS011;14341;51.256;22.478;2022-12-18T10:41:30;60.75;;;29.50;;
26742;SDS011;14341;51.256;22.478;2022-12-18T10:44:35;64.18;;;31.65;;
26742;SDS011;14341;51.256;22.478;2022-12-18T10:47:41;65.65;;;32.65;;
26742;SDS011;14341;51.256;22.478;2022-12-18T10:50:47;66.80;;;32.42;;
26742;SDS011;14341;51.256;22.478;2022-12-18T10:54:14;66.55;;;29.40;;
26742;SDS011;14341;51.256;22.478;2022-12-18T10:57:33;59.85;;;28.70;;
26742;SDS011;14341;51.256;22.478;2022-12-18T11:00:39;53.78;;;26.90;;
26742;SDS011;14341;51.256;22.478;2022-12-18T11:03:44;53.28;;;27.45;;
26742;SDS011;14341;51.256;22.478;2022-12-18T11:06:53;56.70;;;28.08;;
26742;SDS011;14341;51.256;22.478;2022-12-18T11:10:05;63.28;;;27.27;;
26742;SDS011;14341;51.256;22.478;2022-12-18T11:13:20;58.95;;;29.13;;
26742;SDS011;14341;51.256;22.478;2022-12-18T11:16:25;58.47;;;28.35;;
26742;SDS011;14341;51.256;22.478;2022-12-18T11:19:31;64.22;;;29.45;;
26742;SDS011;14341;51.256;22.478;2022-12-18T11:22:36;53.58;;;27.02;;
26742;SDS011;14341;51.256;22.478;2022-12-18T11:25:42;68.22;;;30.55;;
26742;SDS011;14341;51.256;22.478;2022-12-18T11:29:07;59.97;;;28.75;;
26742;SDS011;14341;51.256;22.478;2022-12-18T11:32:25;67.72;;;30.52;;
26742;SDS011;14341;51.256;22.478;2022-12-18T11:35:42;63.60;;;29.00;;
26742;SDS011;14341;51.256;22.478;2022-12-18T11:38:50;72.55;;;31.13;;
26742;SDS011;14341;51.256;22.478;2022-12-18T11:41:57;55.80;;;27.50;;
26742;SDS011;14341;51.256;22.478;2022-12-18T11:45:23;58.72;;;27.15;;
26742;SDS011;14341;51.256;22.478;2022-12-18T11:48:32;67.90;;;30.15;;
26742;SDS011;14341;51.256;22.478;2022-12-18T11:51:43;57.72;;;27.50;;
26742;SDS011;14341;51.256;22.478;2022-12-18T11:54:52;48.10;;;24.38;;
26742;SDS011;14341;51.256;22.478;2022-12-18T11:57:59;59.50;;;27.30;;
26742;SDS011;14341;51.256;22.478;2022-12-18T12:01:12;54.47;;;27.52;;
26742;SDS011;14341;51.256;22.478;2022-12-18T12:04:30;51.97;;;25.42;;
26742;SDS011;14341;51.256;22.478;2022-12-18T12:07:43;39.78;;;21.45;;
26742;SDS011;14341;51.256;22.478;2022-12-18T12:10:56;55.92;;;25.30;;
26742;SDS011;14341;51.256;22.478;2022-12-18T12:14:10;47.05;;;24.58;;
26742;SDS011;14341;51.256;22.478;2022-12-18T12:17:26;47.38;;;24.10;;
26742;SDS011;14341;51.256;22.478;2022-12-18T12:20:42;42.40;;;21.67;;
26742;SDS011;14341;51.256;22.478;2022-12-18T12:23:54;40.67;;;22.83;;
26742;SDS011;14341;51.256;22.478;2022-12-18T12:27:09;40.30;;;20.55;;
26742;SDS011;14341;51.256;22.478;2022-12-18T12:30:26;45.67;;;25.27;;
26742;SDS011;14341;51.256;22.478;2022-12-18T12:33:39;39.65;;;20.83;;
26742;SDS011;14341;51.256;22.478;2022-12-18T12:36:55;47.50;;;24.20;;
26742;SDS011;14341;51.256;22.478;2022-12-18T12:40:12;71.05;;;31.90;;
26742;SDS011;14341;51.256;22.478;2022-12-18T12:47:11;63.38;;;27.48;;
26742;SDS011;14341;51.256;22.478;2022-12-18T12:50:20;46.33;;;23.30;;
26742;SDS011;14341;51.256;22.478;2022-12-18T12:53:28;47.88;;;24.27;;
26742;SDS011;14341;51.256;22.478;2022-12-18T12:56:42;48.75;;;24.08;;
26742;SDS011;14341;51.256;22.478;2022-12-18T12:59:52;46.83;;;24.83;;
26742;SDS011;14341;51.256;22.478;2022-12-18T13:03:04;49.42;;;25.33;;
26742;SDS011;14341;51.256;22.478;2022-12-18T13:06:16;50.08;;;24.63;;
26742;SDS011;14341;51.256;22.478;2022-12-18T13:09:32;49.35;;;26.52;;
26742;SDS011;14341;51.256;22.478;2022-12-18T13:12:46;73.18;;;31.50;;
26742;SDS011;14341;51.256;22.478;2022-12-18T13:16:03;84.40;;;33.53;;
26742;SDS011;14341;51.256;22.478;2022-12-18T13:19:18;103.82;;;40.15;;
26742;SDS011;14341;51.256;22.478;2022-12-18T13:22:28;50.22;;;25.52;;
26742;SDS011;14341;51.256;22.478;2022-12-18T13:25:36;53.47;;;26.60;;
26742;SDS011;14341;51.256;22.478;2022-12-18T13:28:50;68.03;;;29.65;;
26742;SDS011;14341;51.256;22.478;2022-12-18T13:31:59;75.03;;;32.05;;
26742;SDS011;14341;51.256;22.478;2022-12-18T13:38:42;42.95;;;24.15;;
26742;SDS011;14341;51.256;22.478;2022-12-18T13:41:48;46.65;;;23.70;;
26742;SDS011;14341;51.256;22.478;2022-12-18T13:44:53;46.15;;;24.90;;
26742;SDS011;14341;51.256;22.478;2022-12-18T13:47:57;47.78;;;25.42;;
26742;SDS011;14341;51.256;22.478;2022-12-18T13:51:02;49.28;;;25.23;;
26742;SDS011;14341;51.256;22.478;2022-12-18T13:54:13;59.30;;;27.65;;
26742;SDS011;14341;51.256;22.478;2022-12-18T13:57:28;55.05;;;26.10;;
26742;SDS011;14341;51.256;22.478;2022-12-18T14:00:33;49.35;;;25.38;;
26742;SDS011;14341;51.256;22.478;2022-12-18T14:03:37;58.75;;;30.50;;
26742;SDS011;14341;51.256;22.478;2022-12-18T14:06:45;64.25;;;31.75;;
26742;SDS011;14341;51.256;22.478;2022-12-18T14:09:49;67.60;;;32.88;;
26742;SDS011;14341;51.256;22.478;2022-12-18T14:13:08;77.78;;;39.30;;
26742;SDS011;14341;51.256;22.478;2022-12-18T14:16:15;97.50;;;40.55;;
26742;SDS011;14341;51.256;22.478;2022-12-18T14:19:20;73.00;;;34.63;;
26742;SDS011;14341;51.256;22.478;2022-12-18T14:22:25;75.40;;;36.75;;
26742;SDS011;14341;51.256;22.478;2022-12-18T14:25:31;70.35;;;34.80;;
26742;SDS011;14341;51.256;22.478;2022-12-18T14:28:42;64.43;;;34.47;;
26742;SDS011;14341;51.256;22.478;2022-12-18T14:31:46;69.88;;;35.10;;
26742;SDS011;14341;51.256;22.478;2022-12-18T14:35:12;68.30;;;32.33;;
26742;SDS011;14341;51.256;22.478;2022-12-18T14:38:23;48.80;;;28.13;;
26742;SDS011;14341;51.256;22.478;2022-12-18T14:41:29;68.82;;;32.33;;
26742;SDS011;14341;51.256;22.478;2022-12-18T14:44:35;132.73;;;59.83;;
26742;SDS011;14341;51.256;22.478;2022-12-18T14:47:59;143.20;;;62.78;;
26742;SDS011;14341;51.256;22.478;2022-12-18T14:51:04;81.00;;;38.47;;
26742;SDS011;14341;51.256;22.478;2022-12-18T14:54:16;72.25;;;36.90;;
26742;SDS011;14341;51.256;22.478;2022-12-18T14:57:22;60.22;;;30.02;;
26742;SDS011;14341;51.256;22.478;2022-12-18T15:00:29;70.20;;;33.72;;
26742;SDS011;14341;51.256;22.478;2022-12-18T15:03:33;78.75;;;38.22;;
26742;SDS011;14341;51.256;22.478;2022-12-18T15:06:37;76.32;;;35.03;;
26742;SDS011;14341;51.256;22.478;2022-12-18T15:09:47;68.93;;;33.90;;
26742;SDS011;14341;51.256;22.478;2022-12-18T15:13:09;56.20;;;30.80;;
26742;SDS011;14341;51.256;22.478;2022-12-18T15:16:25;56.95;;;31.25;;
26742;SDS011;14341;51.256;22.478;2022-12-18T15:19:32;52.53;;;27.75;;
26742;SDS011;14341;51.256;22.478;2022-12-18T15:22:41;69.20;;;32.80;;
26742;SDS011;14341;51.256;22.478;2022-12-18T15:25:45;57.95;;;29.48;;
26742;SDS011;14341;51.256;22.478;2022-12-18T15:28:50;60.80;;;31.52;;
26742;SDS011;14341;51.256;22.478;2022-12-18T15:32:04;46.50;;;24.52;;
26742;SDS011;14341;51.256;22.478;2022-12-18T15:35:19;52.42;;;26.17;;
26742;SDS011;14341;51.256;22.478;2022-12-18T15:38:24;58.75;;;29.15;;
26742;SDS011;14341;51.256;22.478;2022-12-18T15:41:30;59.92;;;28.80;;
26742;SDS011;14341;51.256;22.478;2022-12-18T15:44:36;61.65;;;32.40;;
26742;SDS011;14341;51.256;22.478;2022-12-18T15:47:41;79.82;;;44.17;;
26742;SDS011;14341;51.256;22.478;2022-12-18T15:50:44;51.33;;;27.52;;
26742;SDS011;14341;51.256;22.478;2022-12-18T15:53:48;50.22;;;26.65;;
26742;SDS011;14341;51.256;22.478;2022-12-18T15:56:54;57.17;;;27.70;;
26742;SDS011;14341;51.256;22.478;2022-12-18T16:00:15;61.83;;;32.00;;
26742;SDS011;14341;51.256;22.478;2022-12-18T16:03:20;62.85;;;31.63;;
26742;SDS011;14341;51.256;22.478;2022-12-18T16:06:24;68.40;;;36.42;;
26742;SDS011;14341;51.256;22.478;2022-12-18T16:09:48;59.13;;;30.48;;
26742;SDS011;14341;51.256;22.478;2022-12-18T16:12:51;58.63;;;30.58;;
26742;SDS011;14341;51.256;22.478;2022-12-18T16:15:55;65.28;;;34.70;;
26742;SDS011;14341;51.256;22.478;2022-12-18T16:19:00;52.33;;;29.52;;
26742;SDS011;14341;51.256;22.478;2022-12-18T16:22:04;57.42;;;30.90;;
26742;SDS011;14341;51.256;22.478;2022-12-18T16:25:08;56.90;;;30.50;;
26742;SDS011;14341;51.256;22.478;2022-12-18T16:28:16;43.63;;;22.65;;
26742;SDS011;14341;51.256;22.478;2022-12-18T16:31:22;54.00;;;29.20;;
26742;SDS011;14341;51.256;22.478;2022-12-18T16:34:27;56.70;;;32.38;;
26742;SDS011;14341;51.256;22.478;2022-12-18T16:40:39;59.35;;;32.45;;
26742;SDS011;14341;51.256;22.478;2022-12-18T16:44:03;67.47;;;36.65;;
26742;SDS011;14341;51.256;22.478;2022-12-18T16:47:07;93.95;;;44.83;;
26742;SDS011;14341;51.256;22.478;2022-12-18T16:50:17;87.07;;;43.92;;
26742;SDS011;14341;51.256;22.478;2022-12-18T16:53:20;143.77;;;69.72;;
26742;SDS011;14341;51.256;22.478;2022-12-18T16:56:24;121.57;;;60.70;;
26742;SDS011;14341;51.256;22.478;2022-12-18T16:59:27;99.75;;;48.78;;
26742;SDS011;14341;51.256;22.478;2022-12-18T17:02:35;110.00;;;52.28;;
26742;SDS011;14341;51.256;22.478;2022-12-18T17:05:40;110.13;;;51.85;;
26742;SDS011;14341;51.256;22.478;2022-12-18T17:08:53;115.53;;;52.65;;
26742;SDS011;14341;51.256;22.478;2022-12-18T17:12:00;112.63;;;51.47;;
26742;SDS011;14341;51.256;22.478;2022-12-18T17:15:05;160.55;;;65.07;;
26742;SDS011;14341;51.256;22.478;2022-12-18T17:18:09;149.57;;;61.42;;
26742;SDS011;14341;51.256;22.478;2022-12-18T17:21:14;149.35;;;62.45;;
26742;SDS011;14341;51.256;22.478;2022-12-18T17:24:18;114.15;;;52.10;;
26742;SDS011;14341;51.256;22.478;2022-12-18T17:27:23;111.10;;;52.58;;
26742;SDS011;14341;51.256;22.478;2022-12-18T17:30:28;72.00;;;36.55;;
26742;SDS011;14341;51.256;22.478;2022-12-18T17:33:33;98.40;;;47.53;;
26742;SDS011;14341;51.256;22.478;2022-12-18T17:36:39;99.65;;;48.05;;
26742;SDS011;14341;51.256;22.478;2022-12-18T17:39:43;96.07;;;43.97;;
26742;SDS011;14341;51.256;22.478;2022-12-18T17:42:46;97.32;;;48.17;;
26742;SDS011;14341;51.256;22.478;2022-12-18T17:45:53;89.55;;;41.08;;
26742;SDS011;14341;51.256;22.478;2022-12-18T17:49:00;95.35;;;44.10;;
26742;SDS011;14341;51.256;22.478;2022-12-18T17:52:07;88.45;;;38.95;;
26742;SDS011;14341;51.256;22.478;2022-12-18T17:55:11;89.55;;;40.85;;
26742;SDS011;14341;51.256;22.478;2022-12-18T17:58:14;76.47;;;38.10;;
26742;SDS011;14341;51.256;22.478;2022-12-18T18:01:21;126.75;;;51.08;;
26742;SDS011;14341;51.256;22.478;2022-12-18T18:04:26;405.33;;;140.05;;